Blowing Sand Mountains, Nevada Weather observations

Data are for observation ending at time listed.
 Day   Time    Ave.   Ave.  Ave.  Vector   Max.   Stn.    Total    Solar   Ave.  
  of    of     Air    Rel.  Wind   Wind    Wind   Baro.  Precip.   Rad.    Soil  
Year   Day     Temp.  Hum.  Speed  Dir.    Gust   Pres.                    Temp. 
2014   (PST)    F      %     mph   deg.    mph     mb.     in.     W/m2     F   
------------------------------------------------------------------------------
 329    3:30   16.3    57    2.2    66      3.4    895.8     0.00       0     41.6
 329    3:40   18.3    58    2.8    90      4.0    895.7     0.00       0     41.5
 329    3:50   19.4    58    3.1    79      4.2    895.6     0.00       0     41.5
 329    4:00   20.2    56    1.7   133      3.4    895.6     0.00       0     41.5
 329    4:10   18.7    56    1.1   207      3.2    895.6     0.00       0     41.4
 329    4:20   16.6    55    0.9   247      2.6    895.7     0.00       0     41.4
 329    4:30   16.0    57    0.2     7      1.2    895.7     0.00       0     41.3
 329    4:40   16.8    58    0.8    95      1.8    895.8     0.00       0     41.3
 329    4:50   16.2    58    1.6   166      3.5    895.9     0.00       0     41.3
 329    5:00   16.3    59    2.5   166      4.2    895.9     0.00       0     41.2
 329    5:10   16.8    59    0.4    14      2.3    896.0     0.00       0     41.2
 329    5:20   16.3    58    1.1     1      1.8    896.0     0.00       0     41.1
 329    5:30   15.9    58    0.2     1      0.9    896.1     0.00       0     41.1
 329    5:40   16.8    58    0.0   335      0.4    896.0     0.00       0     41.0
 329    5:50   16.0    58    0.3    67      1.5    896.1     0.00       0     41.0
 329    6:00   17.1    59    0.8    49      1.6    896.2     0.00       0     40.9
 329    6:10   18.4    59    1.6   105      3.1    896.3     0.00       0     40.9
 329    6:20   20.2    60    3.9   125      5.0    896.1     0.00       0     40.8
 329    6:30   22.6    57    3.3   132      4.4    896.1     0.00       0     40.8
 329    6:40   21.0    54    1.1   267      2.7    896.2     0.00       1     40.8
 329    6:50   15.9    53    2.3   270      3.7    896.3     0.00       3     40.7
 329    7:00   14.6    54    0.4   292      1.7    896.4     0.00       7     40.7
 329    7:10   15.1    55    0.2    56      1.5    896.5     0.00      23     40.6
 329    7:20   16.8    54    0.2    69      1.5    896.5     0.00      45     40.6
 329    7:30   19.5    51    0.0   132      0.7    896.5     0.00      74     40.5
 329    7:40   21.9    50    0.3   106      1.3    896.6     0.00     107     40.5
 329    7:50   25.4    50    0.0     0      0.0    896.5     0.00     138     40.4
 329    8:00   27.2    47    0.2    59      1.6    896.3     0.00     162     40.4
 329    8:10   29.1    47    2.5    44      3.8    896.5     0.00     186     40.4
 329    8:20   32.6    45    1.0    73      3.0    896.6     0.00     210     40.3
 329    8:30   35.9    42    1.2   244      5.1    896.7     0.00     234     40.3
 329    8:40   30.2    44    4.5   233      6.1    896.7     0.00     261     40.3
 329    8:50   32.1    44    2.9   211      4.8    896.7     0.00     285     40.3
 329    9:00   35.7    38    1.0   297      3.1    896.7     0.00     307     40.2
 329    9:10   35.9    38    2.4    26      3.2    896.7     0.00     330     40.2
 329    9:20   37.3    35    2.0    33      3.2    896.6     0.00     351     40.2
 329    9:30   40.2    32    1.8    45      3.3    896.6     0.00     371     40.2
 329    9:40   42.9    29    0.8    76      2.0    896.7     0.00     390     40.2
 329    9:50   45.6    26    0.5   325      2.4    896.6     0.00     408     40.1
 329   10:00   46.0    26    3.1    50      6.5    896.4     0.00     425     40.1
 329   10:10   48.2    23    5.8   142     10.4    896.4     0.00     441     40.1
 329   10:20   48.8    21    6.9   137     10.0    896.3     0.00     455     40.0
 329   10:30   49.6    20    5.8   146      7.9    896.3     0.00     467     40.0
 329   10:40   50.6    20    3.7   146      6.9    896.2     0.00     479     40.0
 329   10:50   52.2    18    3.4   168      5.9    896.0     0.00     489     39.9
 329   11:00   52.7    17    3.5   155      6.7    895.9     0.00     497     39.9
 329   11:10   53.3    17    4.6   172      8.3    895.7     0.00     504     39.9
 329   11:20   54.0    16    3.4   155      6.6    895.7     0.00     509     39.8
 329   11:30   54.2    15    2.3   177      5.4    895.5     0.00     514     39.8
 329   11:40   54.6    15    2.0   166      4.5    895.3     0.00     516     39.8
 329   11:50   55.4    14    1.6   195      4.3    894.9     0.00     516     39.8
 329   12:00   55.8    14    1.3    90      4.1    894.7     0.00     515     39.8
 329   12:10   55.2    14    2.4    97      5.6    894.5     0.00     512     39.8
 329   12:20   56.4    14    2.1   144      6.1    894.4     0.00     508     39.8
 329   12:30   57.8    13    1.6   145      5.3    894.2     0.00     502     39.8
 329   12:40   59.1    13    1.5   141      5.9    894.0     0.00     494     39.8
 329   12:50   58.1    13    4.0   110      7.5    893.8     0.00     485     39.8
 329   13:00   58.3    13    3.1   113      9.8    893.7     0.00     474     39.8
 329   13:10   59.1    13    5.6   148      9.4    893.6     0.00     463     39.8
 329   13:20   59.8    13    5.5   165      8.9    893.5     0.00     449     39.8
 329   13:30   60.1    13    5.2   159      8.4    893.4     0.00     434     39.8
 329   13:40   60.7    13    4.3   152      7.2    893.2     0.00     418     39.8
 329   13:50   60.9    13    4.3   145      8.2    893.2     0.00     400     39.8
 329   14:00   61.1    13    4.9   163      9.3    893.1     0.00     380     39.9
 329   14:10   61.6    13    4.7   155      8.1    893.1     0.00     360     39.9
 329   14:20   61.4    13    5.2   151      8.0    893.0     0.00     339     40.0
 329   14:30   61.7    13    4.6   152      8.0    893.0     0.00     317     40.0
 329   14:40   61.8    13    4.5   141      7.5    893.0     0.00     294     40.0
 329   14:50   61.2    14    4.4   126      8.3    893.0     0.00     271     40.1
 329   15:00   61.8    13    5.1   140      7.8    893.0     0.00     247     40.1
 329   15:10   61.5    14    5.0   131      7.7    893.0     0.00     222     40.2
 329   15:20   61.4    14    4.4   134      6.6    893.0     0.00     197     40.2
 329   15:30   61.8    14    4.0   144      6.1    893.0     0.00     172     40.3
 329   15:40   62.2    14    3.5   163      5.3    893.0     0.00     147     40.3
 329   15:50   62.3    14    3.2   170      4.5    893.0     0.00     118     40.4
 329   16:00   62.2    14    2.8   164      3.9    893.0     0.00      83     40.5
 329   16:10   60.9    16    2.5   165      3.2    892.9     0.00      53     40.5
 329   16:20   59.7    16    3.1   182      4.0    892.9     0.00      23     40.6
 329   16:30   55.6    18    2.1   184      3.6    892.9     0.00       8     40.7
 329   16:40   51.8    21    2.3   190      3.7    892.9     0.00       4     40.7
 329   16:50   49.3    22    2.4    80      3.7    893.0     0.00       2     40.8
 329   17:00   50.3    22    2.5   103      3.9    893.0     0.00       0     40.8
 329   17:10   48.5    23    4.1   113      4.8    892.9     0.00       0     40.9
 329   17:20   47.5    25    1.8   104      5.6    892.9     0.00       0     40.9
 329   17:30   46.4    27    3.5    91      4.7    892.9     0.00       0     41.0
 329   17:40   44.3    29    2.4   114      4.3    892.9     0.00       0     41.1
 329   17:50   42.7    31    2.3   109      3.4    892.9     0.00       0     41.1
 329   18:00   41.5    33    0.4    97      2.3    893.0     0.00       0     41.2
 329   18:10   43.2    33    0.8    86      2.1    893.0     0.00       0     41.2
 329   18:20   42.4    32    3.6   166      5.5    893.0     0.00       0     41.3
 329   18:30   40.4    34    3.7   143      5.0    893.2     0.00       0     41.3
 329   18:40   39.6    34    3.8   138      4.8    893.3     0.00       0     41.4
 329   18:50   38.8    36    4.1   137      5.5    893.3     0.00       0     41.4
 329   19:00   38.2    36    3.9   161      5.3    893.4     0.00       0     41.4
 329   19:10   37.5    37    2.3   142      4.0    893.5     0.00       0     41.5
 329   19:20   36.5    38    2.1   160      3.1    893.5     0.00       0     41.5
 329   19:30   35.7    39    2.3   136      3.1    893.5     0.00       0     41.6
 329   19:40   34.7    41    3.1   134      4.9    893.6     0.00       0     41.6
 329   19:50   36.7    40    4.0   114      5.6    893.6     0.00       0     41.7
 329   20:00   37.0    39    3.6    83      4.7    893.7     0.00       0     41.7
 329   20:10   36.6    40    3.5   109      4.6    893.8     0.00       0     41.7
 329   20:20   36.0    40    2.9   126      4.5    893.9     0.00       0     41.8
 329   20:30   34.3    43    2.6   167      3.4    893.9     0.00       0     41.8
 329   20:40   33.1    45    2.0   192      4.1    894.0     0.00       0     41.8
 329   20:50   32.2    45    0.8   309      2.4    894.2     0.00       0     41.8
 329   21:00   31.0    48    2.1   358      2.8    894.2     0.00       0     41.9
 329   21:10   31.7    47    1.8    18      3.2    894.2     0.00       0     41.9
 329   21:20   32.0    48    2.0    27      3.2    894.1     0.00       0     41.9
 329   21:30   31.3    48    2.9    88      4.6    894.1     0.00       0     41.9
 329   21:40   34.0    47    1.4    49      3.2    894.1     0.00       0     41.9
 329   21:50   32.5    46    0.5   162      2.5    894.1     0.00       0     41.9
 329   22:00   31.5    50    2.5   178      3.8    894.1     0.00       0     41.9
 329   22:10   30.6    47    1.2   293      3.7    894.1     0.00       0     41.9
 329   22:20   25.9    50    2.2   354      3.7    894.2     0.00       0     42.0
 329   22:30   25.1    51    0.1   347      0.7    894.2     0.00       0     42.0
 329   22:40   25.9    53    0.2    56      1.6    894.2     0.00       0     42.0
 329   22:50   25.7    52    0.0   189      1.1    894.1     0.00       0     41.9
 329   23:00   25.3    53    0.1   226      0.8    894.1     0.00       0     41.9
 329   23:10   26.4    54    2.0   128      3.1    894.1     0.00       0     41.9
 329   23:20   27.7    52    3.0    97      3.7    894.0     0.00       0     41.9
 329   23:30   27.5    53    3.0    84      3.9    894.0     0.00       0     41.9
 329   23:40   27.2    53    1.1    82      2.9    894.0     0.00       0     41.9
 329   23:50   26.6    54    0.0   100      0.5    894.0     0.00       0     41.9
 330    0:00   26.8    55    1.8    85      3.2    893.9     0.00       0     41.9
 330    0:10   27.4    56    2.7    73      5.0    893.8     0.00       0     41.9
 330    0:20   28.7    55    2.1   124      4.2    893.7     0.00       0     41.9
 330    0:30   30.4    54    4.1   106      5.4    893.6     0.00       0     41.9
 330    0:40   29.2    55    2.6   115      3.8    893.5     0.00       0     41.9
 330    0:50   28.5    55    1.2   353      2.9    893.5     0.00       0     41.9
 330    1:00   24.7    52    1.1   337      2.9    893.4     0.00       0     41.9
 330    1:10   24.1    56    1.1    55      2.1    893.4     0.00       0     41.8
 330    1:20   25.7    55    0.7    85      1.8    893.4     0.00       0     41.8
 330    1:30   24.4    55    0.1   110      1.4    893.4     0.00       0     41.8
 330    1:40   24.4    57    0.8    99      2.1    893.4     0.00       0     41.8
 330    1:50   26.0    58    1.3    89      2.5    893.4     0.00       0     41.8
 330    2:00   25.9    58    0.4    79      2.2    893.4     0.00       0     41.7
 330    2:10   25.0    55    0.6    10      2.3    893.4     0.00       0     41.7
 330    2:20   22.4    53    0.1   248      1.5    893.4     0.00       0     41.7
 330    2:30   21.8    55    0.4   223      1.5    893.4     0.00       0     41.6
 330    2:40   23.6    58    1.8    43      2.9    893.3     0.00       0     41.6
 330    2:50   23.2    53    0.0    61      0.1    893.3     0.00       0     41.6
 330    3:00   22.6    56    0.3   192      1.8    893.2     0.00       0     41.6
 330    3:10   22.9    56    0.8   171      2.8    893.1     0.00       0     41.5
 330    3:20   21.6    56    0.7   172      1.7    893.1     0.00       0     41.5

Return to Blowing Sand Mountains graphs page.


Western Regional Climate Center,wrcc@dri.edu